createdAt,value
2019-02-03T00:00:53.873Z,98.72
2019-02-03T00:01:53.847Z,98.63
2019-02-03T00:02:53.833Z,98.63
2019-02-03T00:03:53.815Z,98.44
2019-02-03T00:04:53.793Z,98.63
2019-02-03T00:05:53.772Z,98.72
2019-02-03T00:07:03.016Z,98.72
2019-02-03T00:07:53.755Z,98.63
2019-02-03T00:08:53.715Z,98.72
2019-02-03T00:09:53.831Z,98.63
2019-02-03T00:10:53.678Z,98.82
2019-02-03T00:11:53.663Z,98.82
2019-02-03T00:12:53.643Z,98.63
2019-02-03T00:13:53.626Z,98.63
2019-02-03T00:14:53.603Z,98.63
2019-02-03T00:15:53.598Z,98.63
2019-02-03T00:16:53.572Z,98.63
2019-02-03T00:17:53.548Z,98.63
2019-02-03T00:18:53.524Z,98.63
2019-02-03T00:19:53.516Z,98.44
2019-02-03T00:20:53.488Z,98.54
2019-02-03T00:21:53.472Z,98.63
2019-02-03T00:22:53.448Z,98.63
2019-02-03T00:23:53.448Z,98.63
2019-02-03T00:24:53.413Z,98.54
2019-02-03T00:25:53.400Z,98.54
2019-02-03T00:26:53.376Z,98.91
2019-02-03T00:27:53.365Z,98.72
2019-02-03T00:28:53.336Z,98.72
2019-02-03T00:29:53.323Z,98.63
2019-02-03T00:30:53.297Z,98.54
2019-02-03T00:31:53.276Z,98.91
2019-02-03T00:32:53.272Z,98.82
2019-02-03T00:33:53.239Z,98.91
2019-02-03T00:34:53.219Z,98.82
2019-02-03T00:35:53.203Z,98.63
2019-02-03T00:36:53.177Z,98.54
2019-02-03T00:37:53.421Z,98.72
2019-02-03T00:38:53.148Z,98.63
2019-02-03T00:39:53.130Z,98.63
2019-02-03T00:40:53.106Z,98.63
2019-02-03T00:41:53.219Z,98.63
2019-02-03T00:42:53.070Z,98.63
2019-02-03T00:43:53.050Z,98.63
2019-02-03T00:44:53.038Z,98.54
2019-02-03T00:45:53.027Z,98.63
2019-02-03T00:46:52.992Z,98.91
2019-02-03T00:47:53.001Z,98.63
2019-02-03T00:48:52.952Z,98.72
2019-02-03T00:49:52.937Z,98.82
2019-02-03T00:50:52.917Z,98.54
2019-02-03T00:51:52.980Z,98.72
2019-02-03T00:52:52.878Z,98.54
2019-02-03T00:53:52.867Z,98.54
2019-02-03T00:54:52.838Z,99.01
2019-02-03T00:55:52.820Z,98.72
2019-02-03T00:56:52.796Z,98.72
2019-02-03T00:57:52.780Z,98.54
2019-02-03T00:58:52.771Z,99.01
2019-02-03T00:59:52.783Z,98.91
2019-02-03T01:00:52.723Z,98.91
2019-02-03T01:01:52.706Z,98.91
2019-02-03T01:02:52.684Z,98.91
2019-02-03T01:03:52.675Z,98.63
2019-02-03T01:04:52.651Z,98.44
2019-02-03T01:05:52.633Z,98.54
2019-02-03T01:06:52.674Z,98.54
2019-02-03T01:07:52.588Z,98.82
2019-02-03T01:08:52.577Z,98.82
2019-02-03T01:09:52.555Z,98.63
2019-02-03T01:10:52.533Z,98.82
2019-02-03T01:11:52.515Z,99.01
2019-02-03T01:12:52.488Z,98.54
2019-02-03T01:13:52.475Z,98.91
2019-02-03T01:14:52.468Z,98.82
2019-02-03T01:15:52.450Z,98.44
2019-02-03T01:16:52.420Z,98.54
2019-02-03T01:17:52.399Z,98.54
2019-02-03T01:18:52.387Z,98.82
2019-02-03T01:19:52.365Z,98.82
2019-02-03T01:20:52.359Z,98.82
2019-02-03T01:21:52.322Z,98.82
2019-02-03T01:22:52.303Z,98.63
2019-02-03T01:23:52.286Z,99.01
2019-02-03T01:24:52.265Z,98.82
2019-02-03T01:25:52.240Z,98.35
2019-02-03T01:26:52.227Z,98.82
2019-02-03T01:27:52.213Z,98.82
2019-02-03T01:28:52.184Z,98.82
2019-02-03T01:29:52.183Z,98.82
2019-02-03T01:30:52.145Z,98.54
2019-02-03T01:31:52.128Z,98.63
2019-02-03T01:32:52.111Z,98.82
2019-02-03T01:33:52.159Z,98.82
2019-02-03T01:34:52.081Z,99.01
2019-02-03T01:35:52.052Z,98.82
2019-02-03T01:36:52.033Z,98.25
2019-02-03T01:37:52.016Z,98.63
2019-02-03T01:38:51.995Z,98.63
2019-02-03T01:39:51.987Z,98.25
2019-02-03T01:40:51.967Z,99.01
2019-02-03T01:41:51.944Z,98.25
2019-02-03T01:42:51.919Z,99.01
2019-02-03T01:43:51.904Z,99.01
2019-02-03T01:44:51.882Z,98.63
2019-02-03T01:45:51.867Z,98.44
2019-02-03T01:46:51.844Z,98.54
2019-02-03T01:47:51.830Z,98.35
2019-02-03T01:48:52.617Z,98.44
2019-02-03T01:49:51.776Z,98.44
2019-02-03T01:50:51.765Z,98.44
2019-02-03T01:51:51.747Z,98.44
2019-02-03T01:52:51.724Z,98.35
2019-02-03T01:53:51.715Z,98.44
2019-02-03T01:54:51.690Z,98.44
2019-02-03T01:55:51.680Z,98.54
2019-02-03T01:56:51.653Z,98.54
2019-02-03T01:57:51.634Z,98.44
2019-02-03T01:58:51.616Z,98.25
2019-02-03T01:59:51.589Z,98.54
2019-02-03T02:00:51.577Z,98.44
2019-02-03T02:01:51.552Z,98.72
2019-02-03T02:02:51.540Z,98.25
2019-02-03T02:03:51.514Z,98.72
2019-02-03T02:04:51.501Z,98.06
2019-02-03T02:05:51.547Z,98.54
2019-02-03T02:06:53.090Z,98.72
2019-02-03T02:07:52.207Z,98.72
2019-02-03T02:08:51.417Z,98.63
2019-02-03T02:09:51.408Z,98.72
2019-02-03T02:10:51.380Z,98.72
2019-02-03T02:11:51.376Z,98.72
2019-02-03T02:12:51.339Z,99.01
2019-02-03T02:13:51.321Z,98.82
2019-02-03T02:14:51.306Z,98.91
2019-02-03T02:15:51.282Z,98.72
2019-02-03T02:16:51.261Z,98.72
2019-02-03T02:17:51.244Z,98.54
2019-02-03T02:18:51.226Z,98.35
2019-02-03T02:19:51.210Z,98.82
2019-02-03T02:20:51.183Z,98.72
2019-02-03T02:21:51.169Z,98.72
2019-02-03T02:22:51.150Z,98.82
2019-02-03T02:23:51.132Z,98.63
2019-02-03T02:24:51.112Z,98.91
2019-02-03T02:25:51.088Z,98.06
2019-02-03T02:26:51.065Z,98.01
2019-02-03T02:27:51.048Z,98.06
2019-02-03T02:28:51.024Z,98.82
2019-02-03T02:29:51.008Z,98.06
2019-02-03T02:30:50.999Z,98.77
2019-02-03T02:31:50.972Z,98.82
2019-02-03T02:32:50.953Z,98.01
2019-02-03T02:33:50.930Z,97.82
2019-02-03T02:34:50.921Z,98.20
2019-02-03T02:35:50.892Z,98.06
2019-02-03T02:36:50.887Z,98.25
2019-02-03T02:38:05.234Z,98.01
2019-02-03T02:38:50.833Z,98.01
2019-02-03T02:39:50.820Z,98.20
2019-02-03T02:40:50.796Z,98.20
2019-02-03T02:41:50.805Z,98.35
2019-02-03T02:42:50.756Z,98.11
2019-02-03T02:43:50.737Z,97.82
2019-02-03T02:44:50.717Z,98.20
2019-02-03T02:45:50.696Z,97.73
2019-02-03T02:46:50.678Z,98.20
2019-02-03T02:47:50.662Z,98.01
2019-02-03T02:48:50.641Z,97.82
2019-02-03T02:49:50.625Z,98.30
2019-02-03T02:50:50.597Z,97.82
2019-02-03T02:51:50.580Z,98.01
2019-02-03T02:52:50.561Z,98.20
2019-02-03T02:53:50.543Z,97.92
2019-02-03T02:54:50.519Z,98.20
2019-02-03T02:55:50.517Z,98.20
2019-02-03T02:56:50.475Z,98.20
2019-02-03T02:57:50.465Z,97.82
2019-02-03T02:58:50.444Z,98.20
2019-02-03T02:59:50.435Z,98.11
2019-02-03T03:00:50.411Z,97.73
2019-02-03T03:01:50.387Z,98.30
2019-02-03T03:02:50.367Z,97.73
2019-02-03T03:03:50.366Z,97.82
2019-02-03T03:04:50.319Z,97.73
2019-02-03T03:05:50.325Z,97.92
2019-02-03T03:06:50.299Z,97.82
2019-02-03T03:07:50.263Z,97.73
2019-02-03T03:08:50.247Z,97.73
2019-02-03T03:09:50.232Z,97.54
2019-02-03T03:10:50.219Z,97.82
2019-02-03T03:11:50.187Z,97.73
2019-02-03T03:12:50.166Z,97.82
2019-02-03T03:13:50.147Z,97.73
2019-02-03T03:14:50.125Z,97.63
2019-02-03T03:15:50.118Z,97.82
2019-02-03T03:16:50.097Z,97.82
2019-02-03T03:17:50.070Z,97.73
2019-02-03T03:18:50.050Z,97.82
2019-02-03T03:19:50.038Z,97.92
2019-02-03T03:20:50.012Z,97.82
2019-02-03T03:21:49.995Z,97.73
2019-02-03T03:22:49.975Z,97.73
2019-02-03T03:23:49.953Z,98.30
2019-02-03T03:24:49.931Z,98.11
2019-02-03T03:25:49.913Z,98.11
2019-02-03T03:26:49.901Z,98.11
2019-02-03T03:27:49.875Z,98.11
2019-02-03T03:28:49.852Z,98.11
2019-02-03T03:29:49.831Z,98.11
2019-02-03T03:30:49.817Z,97.73
2019-02-03T03:31:49.795Z,97.73
2019-02-03T03:32:49.926Z,98.01
2019-02-03T03:33:49.754Z,97.82
2019-02-03T03:34:49.735Z,97.73
2019-02-03T03:35:49.718Z,97.73
2019-02-03T03:36:49.702Z,97.73
2019-02-03T03:37:49.697Z,97.73
2019-02-03T03:38:49.655Z,97.06
2019-02-03T03:39:49.652Z,97.35
2019-02-03T03:40:49.619Z,97.35
2019-02-03T03:41:49.599Z,97.44
2019-02-03T03:42:49.642Z,97.44
2019-02-03T03:43:49.564Z,97.16
2019-02-03T03:44:49.539Z,97.16
2019-02-03T03:45:49.518Z,97.16
2019-02-03T03:46:49.500Z,97.35
2019-02-03T03:47:49.482Z,97.35
2019-02-03T03:48:49.461Z,97.35
2019-02-03T03:49:49.440Z,97.63
2019-02-03T03:50:49.437Z,96.97
2019-02-03T03:51:49.400Z,97.35
2019-02-03T03:52:49.414Z,97.35
2019-02-03T03:53:49.360Z,97.25
2019-02-03T03:54:49.355Z,97.25
2019-02-03T03:55:49.319Z,97.25
2019-02-03T03:56:49.305Z,97.25
2019-02-03T03:57:49.284Z,97.16
2019-02-03T03:58:49.264Z,97.06
2019-02-03T03:59:49.243Z,97.06
2019-02-03T04:00:49.228Z,96.97
2019-02-03T04:01:49.205Z,96.88
2019-02-03T04:02:49.184Z,96.97
2019-02-03T04:03:49.163Z,96.97
2019-02-03T04:04:51.124Z,97.16
2019-02-03T04:05:49.126Z,97.35
2019-02-03T04:06:49.125Z,97.06
2019-02-03T04:07:49.091Z,97.16
2019-02-03T04:08:49.065Z,97.16
2019-02-03T04:09:49.051Z,96.97
2019-02-03T04:10:49.022Z,96.97
2019-02-03T04:11:49.010Z,96.88
2019-02-03T04:12:48.985Z,96.97
2019-02-03T04:13:48.965Z,96.97
2019-02-03T04:14:48.955Z,97.25
2019-02-03T04:15:48.919Z,97.16
2019-02-03T04:16:48.924Z,97.16
2019-02-03T04:17:48.889Z,97.16
2019-02-03T04:18:48.870Z,97.25
2019-02-03T04:19:48.849Z,97.06
2019-02-03T04:20:48.831Z,96.88
2019-02-03T04:21:48.811Z,96.88
2019-02-03T04:22:48.802Z,96.97
2019-02-03T04:23:48.765Z,96.50
2019-02-03T04:24:48.764Z,96.78
2019-02-03T04:25:48.737Z,96.50
2019-02-03T04:26:48.708Z,96.88
2019-02-03T04:27:48.720Z,96.50
2019-02-03T04:28:48.669Z,96.69
2019-02-03T04:29:48.657Z,96.69
2019-02-03T04:30:48.634Z,96.69
2019-02-03T04:31:48.633Z,96.69
2019-02-03T04:32:48.589Z,96.88
2019-02-03T04:33:48.622Z,96.78
2019-02-03T04:34:48.548Z,96.78
2019-02-03T04:35:48.527Z,96.69
2019-02-03T04:36:48.515Z,96.50
2019-02-03T04:37:48.490Z,96.59
2019-02-03T04:38:57.767Z,96.50
2019-02-03T04:39:48.455Z,96.45
2019-02-03T04:40:48.426Z,96.40
2019-02-03T04:41:48.409Z,96.50
2019-02-03T04:42:48.391Z,96.40
2019-02-03T04:43:48.376Z,96.31
2019-02-03T04:44:48.347Z,96.54
2019-02-03T04:45:48.330Z,96.31
2019-02-03T04:46:48.328Z,96.64
2019-02-03T04:47:48.300Z,96.64
2019-02-03T04:48:48.272Z,96.54
2019-02-03T04:49:48.253Z,96.45
2019-02-03T04:50:48.241Z,96.73
2019-02-03T04:51:48.220Z,97.02
2019-02-03T04:52:48.188Z,96.73
2019-02-03T04:53:48.173Z,96.26
2019-02-03T04:54:48.157Z,96.16
2019-02-03T04:55:48.135Z,96.26
2019-02-03T04:56:48.133Z,96.26
2019-02-03T04:57:48.091Z,96.26
2019-02-03T04:58:48.069Z,96.26
2019-02-03T04:59:48.065Z,96.07
2019-02-03T05:00:48.029Z,95.97
2019-02-03T05:01:48.013Z,96.35
2019-02-03T05:02:47.992Z,95.97
2019-02-03T05:03:47.990Z,96.35
2019-02-03T05:04:47.952Z,96.16
2019-02-03T05:05:47.959Z,96.26
2019-02-03T05:06:47.917Z,96.26
2019-02-03T05:07:47.892Z,96.26
2019-02-03T05:08:47.872Z,96.16
2019-02-03T05:09:47.859Z,95.97
2019-02-03T05:10:47.840Z,95.97
2019-02-03T05:11:47.813Z,96.07
2019-02-03T05:12:47.789Z,96.26
2019-02-03T05:13:47.773Z,96.26
2019-02-03T05:14:47.771Z,96.26
2019-02-03T05:15:47.740Z,96.26
2019-02-03T05:16:47.725Z,96.16
2019-02-03T05:17:47.694Z,96.07
2019-02-03T05:18:47.670Z,96.35
2019-02-03T05:19:47.657Z,96.54
2019-02-03T05:20:47.648Z,96.54
2019-02-03T05:21:47.614Z,96.26
2019-02-03T05:22:47.602Z,96.26
2019-02-03T05:23:47.578Z,96.45
2019-02-03T05:24:47.559Z,95.88
2019-02-03T05:25:47.537Z,95.59
2019-02-03T05:26:47.516Z,95.69
2019-02-03T05:27:47.494Z,96.16
2019-02-03T05:28:47.475Z,95.50
2019-02-03T05:29:47.454Z,95.59
2019-02-03T05:30:47.438Z,95.50
2019-02-03T05:31:47.417Z,95.97
2019-02-03T05:32:47.397Z,95.97
2019-02-03T05:33:47.377Z,95.40
2019-02-03T05:34:47.364Z,95.69
2019-02-03T05:35:47.338Z,95.88
2019-02-03T05:36:47.317Z,95.69
2019-02-03T05:37:47.298Z,95.59
2019-02-03T05:38:47.275Z,95.59
2019-02-03T05:39:47.266Z,95.40
2019-02-03T05:40:47.238Z,95.40
2019-02-03T05:41:47.217Z,95.40
2019-02-03T05:42:47.201Z,95.40
2019-02-03T05:43:47.211Z,95.40
2019-02-03T05:44:47.156Z,95.21
2019-02-03T05:45:47.139Z,95.21
2019-02-03T05:46:47.121Z,95.31
2019-02-03T05:47:49.998Z,95.40
2019-02-03T05:48:47.074Z,95.40
2019-02-03T05:49:47.076Z,95.50
2019-02-03T05:50:47.031Z,95.40
2019-02-03T05:51:47.021Z,95.50
2019-02-03T05:52:47.014Z,95.40
2019-02-03T05:53:46.980Z,95.50
2019-02-03T05:54:47.064Z,95.50
2019-02-03T05:55:46.937Z,95.50
2019-02-03T05:56:46.930Z,95.40
2019-02-03T05:57:46.910Z,95.40
2019-02-03T05:58:46.893Z,95.59
2019-02-03T05:59:46.858Z,95.59
2019-02-03T06:00:46.837Z,95.21
2019-02-03T06:01:46.815Z,95.50
2019-02-03T06:02:46.798Z,95.50
2019-02-03T06:03:46.772Z,95.21
2019-02-03T06:04:46.755Z,95.31
2019-02-03T06:05:46.736Z,95.31
2019-02-03T06:06:46.716Z,95.12
2019-02-03T06:07:46.698Z,95.31
2019-02-03T06:08:46.676Z,95.50
2019-02-03T06:09:46.660Z,95.40
2019-02-03T06:10:46.638Z,94.65
2019-02-03T06:11:46.620Z,95.50
2019-02-03T06:12:46.638Z,95.40
2019-02-03T06:13:46.580Z,95.12
2019-02-03T06:14:46.652Z,95.03
2019-02-03T06:15:46.540Z,94.93
2019-02-03T06:16:46.516Z,95.21
2019-02-03T06:17:46.511Z,94.84
2019-02-03T06:18:46.479Z,95.03
2019-02-03T06:19:46.459Z,94.93
2019-02-03T06:20:46.438Z,95.03
2019-02-03T06:21:46.437Z,94.84
2019-02-03T06:22:46.397Z,95.12
2019-02-03T06:23:46.407Z,95.03
2019-02-03T06:24:46.357Z,94.84
2019-02-03T06:25:46.352Z,94.84
2019-02-03T06:26:46.336Z,94.65
2019-02-03T06:27:46.299Z,94.74
2019-02-03T06:28:46.275Z,94.84
2019-02-03T06:29:46.255Z,94.84
2019-02-03T06:30:46.245Z,94.84
2019-02-03T06:31:46.228Z,94.65
2019-02-03T06:32:46.196Z,94.56
2019-02-03T06:33:46.178Z,94.93
2019-02-03T06:34:46.154Z,94.84
2019-02-03T06:35:46.134Z,94.65
2019-02-03T06:36:46.137Z,94.84
2019-02-03T06:37:46.653Z,94.74
2019-02-03T06:38:46.074Z,94.65
2019-02-03T06:39:48.734Z,94.65
2019-02-03T06:40:46.036Z,94.37
2019-02-03T06:41:46.020Z,94.46
2019-02-03T06:42:45.997Z,94.37
2019-02-03T06:43:45.988Z,94.65
2019-02-03T06:44:45.958Z,94.65
2019-02-03T06:45:45.931Z,94.65
2019-02-03T06:46:45.917Z,94.65
2019-02-03T06:47:45.898Z,94.56
2019-02-03T06:48:45.872Z,94.93
2019-02-03T06:49:45.870Z,94.56
2019-02-03T06:50:45.836Z,94.84
2019-02-03T06:51:45.814Z,94.74
2019-02-03T06:52:45.807Z,94.56
2019-02-03T06:53:45.785Z,94.65
2019-02-03T06:54:45.755Z,94.74
2019-02-03T06:55:45.738Z,95.03
2019-02-03T06:56:45.711Z,94.46
2019-02-03T06:57:45.712Z,94.46
2019-02-03T06:58:45.677Z,94.65
2019-02-03T06:59:51.031Z,94.65
2019-02-03T07:00:45.635Z,94.08
2019-02-03T07:01:45.615Z,93.89
2019-02-03T07:02:45.683Z,94.08
2019-02-03T07:03:45.577Z,94.08
2019-02-03T07:04:45.560Z,94.65
2019-02-03T07:05:45.536Z,93.99
2019-02-03T07:06:45.527Z,93.99
2019-02-03T07:07:45.493Z,94.08
2019-02-03T07:08:45.474Z,94.18
2019-02-03T07:09:45.458Z,94.18
2019-02-03T07:10:45.433Z,94.37
2019-02-03T07:11:45.415Z,94.37
2019-02-03T07:12:45.421Z,93.89
2019-02-03T07:13:45.374Z,93.99
2019-02-03T07:14:45.358Z,93.89
2019-02-03T07:15:45.335Z,93.80
2019-02-03T07:16:45.312Z,94.08
2019-02-03T07:17:45.291Z,94.08
2019-02-03T07:18:45.280Z,94.37
2019-02-03T07:19:45.254Z,94.27
2019-02-03T07:20:45.237Z,93.80
2019-02-03T07:21:45.213Z,93.80
2019-02-03T07:22:45.213Z,93.89
2019-02-03T07:23:45.180Z,93.89
2019-02-03T07:24:45.156Z,93.89
2019-02-03T07:25:45.132Z,93.70
2019-02-03T07:26:45.118Z,94.27
2019-02-03T07:27:45.094Z,93.89
2019-02-03T07:28:45.073Z,93.89
2019-02-03T07:29:45.181Z,94.08
2019-02-03T07:30:45.037Z,94.08
2019-02-03T07:31:45.009Z,94.08
2019-02-03T07:32:44.990Z,93.89
2019-02-03T07:33:44.980Z,93.51
2019-02-03T07:34:44.959Z,93.80
2019-02-03T07:35:44.924Z,93.99
2019-02-03T07:36:44.915Z,93.61
2019-02-03T07:37:44.901Z,93.42
2019-02-03T07:38:44.876Z,93.42
2019-02-03T07:39:44.860Z,93.32
2019-02-03T07:40:44.826Z,93.70
2019-02-03T07:41:44.821Z,93.32
2019-02-03T07:42:44.791Z,93.99
2019-02-03T07:43:44.770Z,93.61
2019-02-03T07:44:44.756Z,93.70
2019-02-03T07:45:44.725Z,93.80
2019-02-03T07:46:44.706Z,93.23
2019-02-03T07:47:44.692Z,93.32
2019-02-03T07:48:44.671Z,94.18
2019-02-03T07:49:44.676Z,94.08
2019-02-03T07:50:44.630Z,93.99
2019-02-03T07:51:44.627Z,93.89
2019-02-03T07:52:44.591Z,93.70
2019-02-03T07:53:44.569Z,93.80
2019-02-03T07:54:44.567Z,93.80
2019-02-03T07:55:44.530Z,93.99
2019-02-03T07:56:44.508Z,93.99
2019-02-03T07:57:44.492Z,93.89
2019-02-03T07:58:44.474Z,94.08
2019-02-03T07:59:44.458Z,93.70
2019-02-03T08:00:44.430Z,93.70
2019-02-03T08:01:44.414Z,93.89
2019-02-03T08:02:44.389Z,93.80
2019-02-03T08:03:44.429Z,93.70
2019-02-03T08:04:44.354Z,93.70
2019-02-03T08:05:44.332Z,93.61
2019-02-03T08:06:44.311Z,93.32
2019-02-03T08:07:44.297Z,93.42
2019-02-03T08:08:44.326Z,93.13
2019-02-03T08:09:44.254Z,93.13
2019-02-03T08:10:44.226Z,93.42
2019-02-03T08:11:44.215Z,93.23
2019-02-03T08:12:44.192Z,93.23
2019-02-03T08:13:44.171Z,93.32
2019-02-03T08:14:44.153Z,93.23
2019-02-03T08:15:44.131Z,93.42
2019-02-03T08:16:44.113Z,93.51
2019-02-03T08:17:44.128Z,93.51
2019-02-03T08:18:44.072Z,93.61
2019-02-03T08:19:44.054Z,93.42
2019-02-03T08:20:44.032Z,93.42
2019-02-03T08:21:44.018Z,93.42
2019-02-03T08:22:44.018Z,93.51
2019-02-03T08:23:43.967Z,93.42
2019-02-03T08:24:43.957Z,93.61
2019-02-03T08:25:43.931Z,93.13
2019-02-03T08:26:43.911Z,93.23
2019-02-03T08:27:43.889Z,93.04
2019-02-03T08:28:43.870Z,93.23
2019-02-03T08:29:43.863Z,92.94
2019-02-03T08:30:43.830Z,93.32
2019-02-03T08:31:43.806Z,92.76
2019-02-03T08:32:43.782Z,92.76
2019-02-03T08:33:43.768Z,93.13
2019-02-03T08:34:43.750Z,92.94
2019-02-03T08:35:43.732Z,92.85
2019-02-03T08:36:43.705Z,92.85
2019-02-03T08:37:43.820Z,92.94
2019-02-03T08:38:43.674Z,92.94
2019-02-03T08:39:43.661Z,93.04
2019-02-03T08:40:43.627Z,92.85
2019-02-03T08:41:43.621Z,92.85
2019-02-03T08:42:43.591Z,93.04
2019-02-03T08:43:43.576Z,92.94
2019-02-03T08:44:43.557Z,92.94
2019-02-03T08:45:43.532Z,93.13
2019-02-03T08:46:43.513Z,92.85
2019-02-03T08:47:45.528Z,92.94
2019-02-03T08:48:43.484Z,93.23
2019-02-03T08:49:43.453Z,93.04
2019-02-03T08:50:43.436Z,93.13
2019-02-03T08:51:43.413Z,92.57
2019-02-03T08:52:43.407Z,92.76
2019-02-03T08:53:43.378Z,92.57
2019-02-03T08:54:56.836Z,92.57
2019-02-03T08:55:43.331Z,92.66
2019-02-03T08:56:43.317Z,92.52
2019-02-03T08:57:43.293Z,92.61
2019-02-03T08:58:43.273Z,92.52
2019-02-03T08:59:43.254Z,92.61
2019-02-03T09:00:43.233Z,92.57
2019-02-03T09:01:43.212Z,92.61
2019-02-03T09:02:43.199Z,92.43
2019-02-03T09:03:43.175Z,92.52
2019-02-03T09:04:43.201Z,92.71
2019-02-03T09:05:43.134Z,92.61
2019-02-03T09:06:43.129Z,92.52
2019-02-03T09:07:43.091Z,92.33
2019-02-03T09:08:43.074Z,92.33
2019-02-03T09:09:43.056Z,92.52
2019-02-03T09:10:48.545Z,92.52
2019-02-03T09:11:43.014Z,92.52
2019-02-03T09:12:43.023Z,92.80
2019-02-03T09:13:42.990Z,92.71
2019-02-03T09:14:42.962Z,92.33
2019-02-03T09:15:42.944Z,92.14
2019-02-03T09:16:42.923Z,92.33
2019-02-03T09:17:42.908Z,92.05
2019-02-03T09:18:42.886Z,91.86
2019-02-03T09:19:42.878Z,92.05
2019-02-03T09:20:42.873Z,92.14
2019-02-03T09:21:42.817Z,92.14
2019-02-03T09:22:42.803Z,91.86
2019-02-03T09:23:42.789Z,92.14
2019-02-03T09:24:42.766Z,92.05
2019-02-03T09:25:42.742Z,92.43
2019-02-03T09:26:42.724Z,92.05
2019-02-03T09:27:42.706Z,92.05
2019-02-03T09:28:42.685Z,91.86
2019-02-03T09:29:42.669Z,92.05
2019-02-03T09:30:42.648Z,91.95
2019-02-03T09:31:42.634Z,92.05
2019-02-03T09:32:42.614Z,92.05
2019-02-03T09:33:42.589Z,92.28
2019-02-03T09:34:42.573Z,92.14
2019-02-03T09:35:42.562Z,92.19
2019-02-03T09:36:42.536Z,92.28
2019-02-03T09:37:42.624Z,92.19
2019-02-03T09:38:42.502Z,92.19
2019-02-03T09:39:42.483Z,92.57
2019-02-03T09:40:42.454Z,92.28
2019-02-03T09:41:42.442Z,91.90
2019-02-03T09:42:42.412Z,91.62
2019-02-03T09:43:42.417Z,91.81
2019-02-03T09:44:42.394Z,91.81
2019-02-03T09:45:42.372Z,91.52
2019-02-03T09:46:42.342Z,91.81
2019-02-03T09:47:42.317Z,92.00
2019-02-03T09:48:42.309Z,91.81
2019-02-03T09:49:42.285Z,92.00
2019-02-03T09:50:42.258Z,91.62
2019-02-03T09:51:42.243Z,91.33
2019-02-03T09:52:42.219Z,91.71
2019-02-03T09:53:42.220Z,91.43
2019-02-03T09:54:42.189Z,90.95
2019-02-03T09:55:42.164Z,91.05
2019-02-03T09:56:42.145Z,91.24
2019-02-03T09:57:42.120Z,91.05
2019-02-03T09:58:42.126Z,91.14
2019-02-03T09:59:42.106Z,90.67
2019-02-03T10:00:42.076Z,91.05
2019-02-03T10:01:42.050Z,90.86
2019-02-03T10:02:42.033Z,90.95
2019-02-03T10:03:42.036Z,90.95
2019-02-03T10:04:41.993Z,90.67
2019-02-03T10:05:41.985Z,91.14
2019-02-03T10:06:41.951Z,90.58
2019-02-03T10:07:41.936Z,90.48
2019-02-03T10:08:41.921Z,90.39
2019-02-03T10:09:41.904Z,90.48
2019-02-03T10:10:41.879Z,90.67
2019-02-03T10:11:41.860Z,90.48
2019-02-03T10:12:41.843Z,90.39
2019-02-03T10:13:41.815Z,90.39
2019-02-03T10:14:41.820Z,90.58
2019-02-03T10:15:41.780Z,90.39
2019-02-03T10:16:41.785Z,90.48
2019-02-03T10:17:41.743Z,90.58
2019-02-03T10:18:41.720Z,90.48
2019-02-03T10:19:41.720Z,90.77
2019-02-03T10:20:41.684Z,90.86
2019-02-03T10:21:41.706Z,90.34
2019-02-03T10:22:41.649Z,90.81
2019-02-03T10:23:41.656Z,90.44
2019-02-03T10:24:42.569Z,90.44
2019-02-03T10:25:41.586Z,90.63
2019-02-03T10:26:41.572Z,90.72
2019-02-03T10:27:41.548Z,90.81
2019-02-03T10:28:41.530Z,90.44
2019-02-03T10:29:41.511Z,90.72
2019-02-03T10:30:41.492Z,90.63
2019-02-03T10:31:41.473Z,90.53
2019-02-03T10:32:41.448Z,90.72
2019-02-03T10:33:41.441Z,90.34
2019-02-03T10:34:41.411Z,90.44
2019-02-03T10:35:41.415Z,90.63
2019-02-03T10:36:41.394Z,90.53
2019-02-03T10:37:41.355Z,90.53
2019-02-03T10:38:41.350Z,90.63
2019-02-03T10:39:41.324Z,90.81
2019-02-03T10:40:41.313Z,90.34
2019-02-03T10:41:41.272Z,90.72
2019-02-03T10:42:41.260Z,90.63
2019-02-03T10:43:41.237Z,90.72
2019-02-03T10:44:41.215Z,90.72
2019-02-03T10:45:41.207Z,90.72
2019-02-03T10:46:41.204Z,91.05
2019-02-03T10:47:41.160Z,90.91
2019-02-03T10:48:41.138Z,90.91
2019-02-03T10:49:41.117Z,90.53
2019-02-03T10:50:41.114Z,90.34
2019-02-03T10:51:41.081Z,90.53
2019-02-03T10:52:41.061Z,90.34
2019-02-03T10:53:41.148Z,90.34
2019-02-03T10:54:41.046Z,90.44
2019-02-03T10:55:41.020Z,90.48
2019-02-03T10:56:40.978Z,90.44
2019-02-03T10:57:40.963Z,90.44
2019-02-03T10:58:40.957Z,90.44
2019-02-03T10:59:40.928Z,90.34
2019-02-03T11:00:40.917Z,90.39
2019-02-03T11:01:40.890Z,90.39
2019-02-03T11:02:40.869Z,90.29
2019-02-03T11:03:40.852Z,90.29
2019-02-03T11:04:40.830Z,90.44
2019-02-03T11:05:40.813Z,90.20
2019-02-03T11:06:40.790Z,90.20
2019-02-03T11:07:40.770Z,90.29
2019-02-03T11:08:40.752Z,89.91
2019-02-03T11:09:40.733Z,89.91
2019-02-03T11:10:40.716Z,90.48
2019-02-03T11:11:40.692Z,90.29
2019-02-03T11:12:40.674Z,90.29
2019-02-03T11:13:40.680Z,89.91
2019-02-03T11:14:40.635Z,89.91
2019-02-03T11:15:40.627Z,90.10
2019-02-03T11:16:40.600Z,90.20
2019-02-03T11:17:40.582Z,90.29
2019-02-03T11:18:40.559Z,89.91
2019-02-03T11:19:40.541Z,90.20
2019-02-03T11:20:40.541Z,90.10
2019-02-03T11:21:40.522Z,89.91
2019-02-03T11:22:40.485Z,89.91
2019-02-03T11:23:40.463Z,90.10
2019-02-03T11:24:40.442Z,90.10
2019-02-03T11:25:40.425Z,90.20
2019-02-03T11:26:40.408Z,90.29
2019-02-03T11:27:40.388Z,89.63
2019-02-03T11:28:40.367Z,89.72
2019-02-03T11:29:40.347Z,89.82
2019-02-03T11:30:40.418Z,89.82
2019-02-03T11:31:40.305Z,89.72
2019-02-03T11:32:40.307Z,89.53
2019-02-03T11:33:40.276Z,89.63
2019-02-03T11:34:40.252Z,89.53
2019-02-03T11:35:40.241Z,89.72
2019-02-03T11:36:40.215Z,89.58
2019-02-03T11:37:40.206Z,89.58
2019-02-03T11:38:40.178Z,89.39
2019-02-03T11:39:40.158Z,89.58
2019-02-03T11:40:40.137Z,89.86
2019-02-03T11:41:48.726Z,89.58
2019-02-03T11:42:40.105Z,89.01
2019-02-03T11:43:43.061Z,89.11
2019-02-03T11:44:40.063Z,88.44
2019-02-03T11:45:40.052Z,88.82
2019-02-03T11:46:40.028Z,88.92
2019-02-03T11:47:40.004Z,88.92
2019-02-03T11:48:39.987Z,89.20
2019-02-03T11:49:39.973Z,89.11
2019-02-03T11:50:39.954Z,88.92
2019-02-03T11:51:39.924Z,88.54
2019-02-03T11:52:39.914Z,88.73
2019-02-03T11:53:39.898Z,88.44
2019-02-03T11:54:39.886Z,88.25
2019-02-03T11:55:39.859Z,88.35
2019-02-03T11:56:39.843Z,88.63
2019-02-03T11:57:39.816Z,88.06
2019-02-03T11:58:39.804Z,87.97
2019-02-03T11:59:39.782Z,88.16
2019-02-03T12:00:39.763Z,88.06
2019-02-03T12:01:39.753Z,88.06
2019-02-03T12:02:41.962Z,88.16
2019-02-03T12:03:39.714Z,88.16
2019-02-03T12:04:39.687Z,88.06
2019-02-03T12:05:39.807Z,87.40
2019-02-03T12:06:39.649Z,87.68
2019-02-03T12:07:39.637Z,87.40
2019-02-03T12:08:39.701Z,87.87
2019-02-03T12:09:39.600Z,87.49
2019-02-03T12:10:39.573Z,87.68
2019-02-03T12:11:39.558Z,87.12
2019-02-03T12:12:39.540Z,87.30
2019-02-03T12:13:39.531Z,87.30
2019-02-03T12:14:39.505Z,87.21
2019-02-03T12:15:39.488Z,87.02
2019-02-03T12:16:39.464Z,87.12
2019-02-03T12:17:39.448Z,86.97
2019-02-03T12:18:39.426Z,86.97
2019-02-03T12:19:39.409Z,86.97
2019-02-03T12:20:39.389Z,87.35
2019-02-03T12:21:39.370Z,86.68
2019-02-03T12:22:39.359Z,86.78
2019-02-03T12:23:39.381Z,86.02
2019-02-03T12:24:39.312Z,86.21
2019-02-03T12:25:39.306Z,86.30
2019-02-03T12:26:39.273Z,86.11
2019-02-03T12:27:39.262Z,86.11
2019-02-03T12:28:39.241Z,86.68
2019-02-03T12:29:39.224Z,86.30
2019-02-03T12:30:39.223Z,86.21
2019-02-03T12:31:39.186Z,86.02
2019-02-03T12:32:39.176Z,85.93
2019-02-03T12:33:39.145Z,86.02
2019-02-03T12:34:39.133Z,85.83
2019-02-03T12:35:39.107Z,85.26
2019-02-03T12:36:40.034Z,85.64
2019-02-03T12:37:39.076Z,85.74
2019-02-03T12:38:39.081Z,85.07
2019-02-03T12:39:39.042Z,85.64
2019-02-03T12:40:39.022Z,85.74
2019-02-03T12:41:39.006Z,85.45
2019-02-03T12:42:38.983Z,85.74
2019-02-03T12:43:38.967Z,85.07
2019-02-03T12:44:38.955Z,85.45
2019-02-03T12:45:38.929Z,85.74
2019-02-03T12:46:39.176Z,85.74
2019-02-03T12:47:38.899Z,85.45
2019-02-03T12:48:38.877Z,84.88
2019-02-03T12:49:38.857Z,85.45
2019-02-03T12:50:38.839Z,85.36
2019-02-03T12:51:40.009Z,85.17
2019-02-03T12:52:38.801Z,84.69